Observation data for O'Donnell on 08/14/2019      Previous  Date  Next       Current Mesonet Observations  Soil Data  Daily Summary Page  Observations in Plain Language
KOES 140500Z 06008KT 28/18 A301 RMK A01 T02790177  RH  057%=      5-min Rain = 0
KOES 140505Z 06007KT 28/18 A301 RMK A01 T02760177  RH  058%=      5-min Rain = 0
KOES 140510Z 06008KT 28/18 A301 RMK A01 T02750177  RH  058%=      5-min Rain = 0
KOES 140515Z 06008KT 28/18 A301 RMK A01 T02750177  RH  058%=      5-min Rain = 0
KOES 140520Z 06008KT 27/18 A3009 RMK A01 T02740176  RH  058%=      5-min Rain = 0
KOES 140525Z 06009KT 27/18 A3009 RMK A01 T02740177  RH  058%=      5-min Rain = 0
KOES 140530Z 05009KT 27/18 A301 RMK A01 T02740177  RH  058%=      5-min Rain = 0
KOES 140535Z 06009KT 27/18 A301 RMK A01 T02730177  RH  059%=      5-min Rain = 0
KOES 140540Z 06008KT 27/18 A301 RMK A01 T02720177  RH  059%=      5-min Rain = 0
KOES 140545Z 05008KT 27/18 A301 RMK A01 T02710177  RH  059%=      5-min Rain = 0
KOES 140550Z 06009KT 27/18 A301 RMK A01 T02700177  RH  060%=      5-min Rain = 0
KOES 140555Z 05009KT 27/18 A301 RMK A01 T02700177  RH  060%=      5-min Rain = 0
KOES 140600Z 06008KT 27/18 A301 RMK A01 T02690177  RH  060%=      5-min Rain = 0
KOES 140605Z 06008KT 27/18 A3011 RMK A01 T02680177  RH  060%=      5-min Rain = 0
KOES 140610Z 06008KT 27/18 A3011 RMK A01 T02670177  RH  061%=      5-min Rain = 0
KOES 140615Z 06007KT 27/18 A3011 RMK A01 T02660177  RH  061%=      5-min Rain = 0
KOES 140620Z 07007KT 27/18 A301 RMK A01 T02650177  RH  062%=      5-min Rain = 0
KOES 140625Z 07007KT 26/18 A301 RMK A01 T02630177  RH  062%=      5-min Rain = 0
KOES 140630Z 07007KT 26/18 A301 RMK A01 T02630178  RH  063%=      5-min Rain = 0
KOES 140635Z 07008KT 26/18 A3011 RMK A01 T02620178  RH  063%=      5-min Rain = 0
KOES 140640Z 06007KT 26/18 A3011 RMK A01 T02610178  RH  063%=      5-min Rain = 0
KOES 140645Z 06007KT 26/18 A301 RMK A01 T02590177  RH  064%=      5-min Rain = 0
KOES 140650Z 07007KT 26/18 A301 RMK A01 T02580177  RH  064%=      5-min Rain = 0
KOES 140655Z 07007KT 26/18 A301 RMK A01 T02580177  RH  064%=      5-min Rain = 0
KOES 140700Z 07009KT 26/18 A301 RMK A01 T02580178  RH  064%=      5-min Rain = 0
KOES 140705Z 07009KT 26/18 A301 RMK A01 T02600178  RH  064%=      5-min Rain = 0
KOES 140710Z 07010KT 26/18 A301 RMK A01 T02600179  RH  064%=      5-min Rain = 0
KOES 140715Z 07010KT 26/18 A301 RMK A01 T02600179  RH  064%=      5-min Rain = 0
KOES 140720Z 06010KT 26/18 A301 RMK A01 T02590179  RH  065%=      5-min Rain = 0
KOES 140725Z 06009KT 26/18 A301 RMK A01 T02580179  RH  065%=      5-min Rain = 0
KOES 140730Z 05009KT 26/18 A301 RMK A01 T02580179  RH  065%=      5-min Rain = 0
KOES 140735Z 05009KT 26/18 A301 RMK A01 T02560179  RH  066%=      5-min Rain = 0
KOES 140740Z 05010KT 26/18 A301 RMK A01 T02560179  RH  066%=      5-min Rain = 0
KOES 140745Z 05011KT 26/18 A301 RMK A01 T02560179  RH  066%=      5-min Rain = 0
KOES 140750Z 06010KT 26/18 A301 RMK A01 T02570180  RH  066%=      5-min Rain = 0
KOES 140755Z 05011KT 26/18 A301 RMK A01 T02570180  RH  066%=      5-min Rain = 0
KOES 140800Z 05012KT 26/18 A301 RMK A01 T02570180  RH  066%=      5-min Rain = 0
KOES 140805Z 05011KT 26/18 A3011 RMK A01 T02580180  RH  066%=      5-min Rain = 0
KOES 140810Z 05012G17KT 26/18 A3011 RMK A01 T02580180  RH  065%=      5-min Rain = 0
KOES 140815Z 05012KT 26/18 A301 RMK A01 T02570179  RH  065%=      5-min Rain = 0
KOES 140820Z 06012KT 26/18 A301 RMK A01 T02570180  RH  066%=      5-min Rain = 0
KOES 140825Z 06011G16KT 26/18 A301 RMK A01 T02560180  RH  066%=      5-min Rain = 0
KOES 140830Z 06011KT 25/18 A301 RMK A01 T02540180  RH  067%=      5-min Rain = 0
KOES 140835Z 06011KT 25/18 A301 RMK A01 T02530180  RH  067%=      5-min Rain = 0
KOES 140840Z 06011KT 25/18 A301 RMK A01 T02520180  RH  068%=      5-min Rain = 0
KOES 140845Z 06011G16KT 25/18 A301 RMK A01 T02520180  RH  068%=      5-min Rain = 0
KOES 140850Z 05010KT 25/18 A301 RMK A01 T02510180  RH  068%=      5-min Rain = 0
KOES 140855Z 05010KT 25/18 A301 RMK A01 T02510180  RH  068%=      5-min Rain = 0
KOES 140900Z 05009KT 25/18 A301 RMK A01 T02500180  RH  068%=      5-min Rain = 0
KOES 140905Z 05009KT 25/18 A301 RMK A01 T02490180  RH  069%=      5-min Rain = 0
KOES 140910Z 05010KT 25/18 A301 RMK A01 T02490179  RH  069%=      5-min Rain = 0
KOES 140915Z 05010G15KT 25/18 A301 RMK A01 T02490179  RH  069%=      5-min Rain = 0
KOES 140920Z 05008KT 25/18 A301 RMK A01 T02480179  RH  069%=      5-min Rain = 0
KOES 140925Z 06010KT 25/18 A301 RMK A01 T02470178  RH  069%=      5-min Rain = 0
KOES 140930Z 06008KT 25/18 A301 RMK A01 T02470178  RH  069%=      5-min Rain = 0
KOES 140935Z 06007KT 25/18 A301 RMK A01 T02450178  RH  070%=      5-min Rain = 0
KOES 140940Z 06007KT 24/18 A301 RMK A01 T02430177  RH  070%=      5-min Rain = 0
KOES 140945Z 06008KT 24/18 A301 RMK A01 T02410177  RH  071%=      5-min Rain = 0
KOES 140950Z 06009KT 24/18 A301 RMK A01 T02420177  RH  071%=      5-min Rain = 0
KOES 140955Z 06008KT 24/18 A301 RMK A01 T02410177  RH  071%=      5-min Rain = 0
KOES 141000Z 06008KT 24/18 A301 RMK A01 T02400177  RH  071%=      5-min Rain = 0
KOES 141005Z 05008KT 24/18 A301 RMK A01 T02390177  RH  072%=      5-min Rain = 0
KOES 141010Z 04009KT 24/18 A3011 RMK A01 T02380177  RH  072%=      5-min Rain = 0
KOES 141015Z 04009KT 24/18 A3011 RMK A01 T02380176  RH  072%=      5-min Rain = 0
KOES 141020Z 04009KT 24/18 A3011 RMK A01 T02380176  RH  072%=      5-min Rain = 0
KOES 141025Z 04010KT 24/18 A3011 RMK A01 T02380175  RH  072%=      5-min Rain = 0
KOES 141030Z 04011KT 24/18 A3011 RMK A01 T02380175  RH  071%=      5-min Rain = 0
KOES 141035Z 04010KT 24/18 A3011 RMK A01 T02380175  RH  071%=      5-min Rain = 0
KOES 141040Z 04012KT 24/18 A3011 RMK A01 T02370175  RH  072%=      5-min Rain = 0
KOES 141045Z 04012KT 24/18 A3011 RMK A01 T02370175  RH  072%=      5-min Rain = 0
KOES 141050Z 04011KT 24/18 A3011 RMK A01 T02360175  RH  072%=      5-min Rain = 0
KOES 141055Z 04011KT 24/17 A3011 RMK A01 T02360174  RH  072%=      5-min Rain = 0
KOES 141100Z 04011KT 24/18 A3011 RMK A01 T02360175  RH  072%=      5-min Rain = 0
KOES 141105Z 04011G16KT 24/18 A3011 RMK A01 T02360175  RH  072%=      5-min Rain = 0
KOES 141110Z 04010KT 24/18 A3012 RMK A01 T02360175  RH  072%=      5-min Rain = 0
KOES 141115Z 04010KT 24/18 A3012 RMK A01 T02350175  RH  072%=      5-min Rain = 0
KOES 141120Z 04010KT 23/18 A3012 RMK A01 T02340175  RH  073%=      5-min Rain = 0
KOES 141125Z 04010KT 23/18 A3012 RMK A01 T02340175  RH  073%=      5-min Rain = 0
KOES 141130Z 04013G18KT 24/18 A3013 RMK A01 T02350176  RH  073%=      5-min Rain = 0
KOES 141135Z 05014KT 24/18 A3013 RMK A01 T02360176  RH  073%=      5-min Rain = 0
KOES 141140Z 03012G17KT 24/18 A3014 RMK A01 T02350176  RH  073%=      5-min Rain = 0
KOES 141145Z 04018G24KT 23/18 A3014 RMK A01 T02340175  RH  073%=      5-min Rain = 0
KOES 141150Z 05017G23KT 23/17 A3014 RMK A01 T02340173  RH  072%=      5-min Rain = 0
KOES 141155Z 05015G22KT 23/17 A3015 RMK A01 T02320172  RH  072%=      5-min Rain = 0
KOES 141200Z 05019G24KT 23/17 A3015 RMK A01 T02320171  RH  072%=      5-min Rain = 0
KOES 141205Z 04017G26KT 23/17 A3015 RMK A01 T02300169  RH  072%=      5-min Rain = 0
KOES 141210Z 05017G24KT 23/17 A3015 RMK A01 T02290167  RH  072%=      5-min Rain = 0
KOES 141215Z 05016KT 23/17 A3015 RMK A01 T02270167  RH  072%=      5-min Rain = 0
KOES 141220Z 04016G21KT 23/17 A3015 RMK A01 T02260167  RH  073%=      5-min Rain = 0
KOES 141225Z 04015G20KT 23/17 A3016 RMK A01 T02250167  RH  073%=      5-min Rain = 0
KOES 141230Z 04016KT 22/17 A3016 RMK A01 T02230167  RH  074%=      5-min Rain = 0
KOES 141235Z 04015G21KT 22/17 A3016 RMK A01 T02230167  RH  074%=      5-min Rain = 0
KOES 141240Z 04014KT 22/17 A3016 RMK A01 T02230168  RH  074%=      5-min Rain = 0
KOES 141245Z 04015KT 22/17 A3016 RMK A01 T02230168  RH  075%=      5-min Rain = 0
KOES 141250Z 04017G22KT 22/17 A3016 RMK A01 T02230168  RH  075%=      5-min Rain = 0
KOES 141255Z 04015G20KT 22/17 A3017 RMK A01 T02230169  RH  075%=      5-min Rain = 0
KOES 141300Z 04015G20KT 22/17 A3017 RMK A01 T02240168  RH  075%=      5-min Rain = 0
KOES 141305Z 04015G20KT 22/17 A3016 RMK A01 T02240168  RH  074%=      5-min Rain = 0
KOES 141310Z 04016G21KT 23/17 A3017 RMK A01 T02250167  RH  073%=      5-min Rain = 0
KOES 141315Z 04016G21KT 23/17 A3017 RMK A01 T02250166  RH  072%=      5-min Rain = 0
KOES 141320Z 04016G24KT 23/17 A3017 RMK A01 T02260166  RH  072%=      5-min Rain = 0
KOES 141325Z 04012G17KT 23/17 A3017 RMK A01 T02280167  RH  072%=      5-min Rain = 0
KOES 141330Z 03014G20KT 23/17 A3018 RMK A01 T02300167  RH  071%=      5-min Rain = 0
KOES 141335Z 04014G19KT 23/17 A3019 RMK A01 T02290166  RH  071%=      5-min Rain = 0
KOES 141340Z 04016G21KT 23/17 A3019 RMK A01 T02290165  RH  070%=      5-min Rain = 0
KOES 141345Z 03016G22KT 23/16 A302 RMK A01 T02290164  RH  070%=      5-min Rain = 0
KOES 141350Z 03017G25KT 23/16 A302 RMK A01 T02290162  RH  069%=      5-min Rain = 0
KOES 141355Z 03017G22KT 23/16 A3021 RMK A01 T02260160  RH  069%=      5-min Rain = 0
KOES 141400Z 03016G22KT 23/16 A3021 RMK A01 T02290161  RH  069%=      5-min Rain = 0
KOES 141405Z 03016G21KT 23/16 A3021 RMK A01 T02320162  RH  068%=      5-min Rain = 0
KOES 141410Z 03016G21KT 24/16 A3021 RMK A01 T02350163  RH  067%=      5-min Rain = 0
KOES 141415Z 03016G22KT 24/16 A3021 RMK A01 T02360162  RH  067%=      5-min Rain = 0
KOES 141420Z 03017G22KT 24/16 A3022 RMK A01 T02380163  RH  066%=      5-min Rain = 0
KOES 141425Z 03017G23KT 24/16 A3022 RMK A01 T02390162  RH  065%=      5-min Rain = 0
KOES 141430Z 03017G22KT 24/16 A3022 RMK A01 T02400161  RH  064%=      5-min Rain = 0
KOES 141435Z 03017G22KT 24/16 A3022 RMK A01 T02400161  RH  064%=      5-min Rain = 0
KOES 141440Z 03017KT 24/16 A3022 RMK A01 T02430161  RH  063%=      5-min Rain = 0
KOES 141445Z 03016G22KT 25/16 A3022 RMK A01 T02470163  RH  062%=      5-min Rain = 0
KOES 141450Z 03017KT 25/16 A3022 RMK A01 T02480163  RH  062%=      5-min Rain = 0
KOES 141455Z 03017KT 25/16 A3022 RMK A01 T02470163  RH  062%=      5-min Rain = 0
KOES 141500Z 04016G21KT 25/17 A3022 RMK A01 T02490165  RH  062%=      5-min Rain = 0
KOES 141505Z 03016KT 25/17 A3022 RMK A01 T02520166  RH  062%=      5-min Rain = 0
KOES 141510Z 04017G22KT 26/17 A3022 RMK A01 T02570167  RH  060%=      5-min Rain = 0
KOES 141515Z 04016G22KT 26/17 A3022 RMK A01 T02580167  RH  060%=      5-min Rain = 0
KOES 141520Z 04015G20KT 26/17 A3022 RMK A01 T02630168  RH  059%=      5-min Rain = 0
KOES 141525Z 04015KT 26/17 A3022 RMK A01 T02640168  RH  058%=      5-min Rain = 0
KOES 141530Z 04014G19KT 27/17 A3022 RMK A01 T02650168  RH  058%=      5-min Rain = 0
KOES 141535Z 03014G19KT 27/17 A3022 RMK A01 T02710169  RH  056%=      5-min Rain = 0
KOES 141540Z 04015G23KT 27/17 A3022 RMK A01 T02710167  RH  056%=      5-min Rain = 0
KOES 141545Z 03015G23KT 27/17 A3023 RMK A01 T02670165  RH  056%=      5-min Rain = 0
KOES 141550Z 04014G19KT 27/17 A3022 RMK A01 T02720167  RH  055%=      5-min Rain = 0
KOES 141555Z 04015KT 28/17 A3022 RMK A01 T02780167  RH  053%=      5-min Rain = 0
KOES 141600Z 05014G19KT 28/17 A3022 RMK A01 T02800167  RH  053%=      5-min Rain = 0
KOES 141605Z 05014G19KT 28/17 A3021 RMK A01 T02820166  RH  052%=      5-min Rain = 0
KOES 141610Z 04015KT 28/16 A3021 RMK A01 T02830163  RH  051%=      5-min Rain = 0
KOES 141615Z 04014KT 29/17 A3021 RMK A01 T02880165  RH  050%=      5-min Rain = 0
KOES 141620Z 04015KT 29/16 A302 RMK A01 T02870164  RH  050%=      5-min Rain = 0
KOES 141625Z 04013G18KT 29/17 A302 RMK A01 T02890166  RH  050%=      5-min Rain = 0
KOES 141630Z 04014KT 29/16 A302 RMK A01 T02910163  RH  048%=      5-min Rain = 0
KOES 141635Z 03014G21KT 29/16 A302 RMK A01 T02920161  RH  047%=      5-min Rain = 0
KOES 141640Z 03014G19KT 29/16 A302 RMK A01 T02930160  RH  047%=      5-min Rain = 0
KOES 141645Z 04012G17KT 29/17 A302 RMK A01 T02940165  RH  048%=      5-min Rain = 0
KOES 141650Z 04013KT 30/17 A302 RMK A01 T02980166  RH  047%=      5-min Rain = 0
KOES 141655Z 05013G18KT 30/16 A302 RMK A01 T02970163  RH  047%=      5-min Rain = 0
KOES 141700Z 05014G20KT 30/16 A302 RMK A01 T02990163  RH  046%=      5-min Rain = 0
KOES 141705Z 05014G21KT 30/16 A302 RMK A01 T02980162  RH  046%=      5-min Rain = 0
KOES 141710Z 04013G21KT 30/16 A302 RMK A01 T03030164  RH  045%=      5-min Rain = 0
KOES 141715Z 04015G21KT 30/16 A302 RMK A01 T03030162  RH  045%=      5-min Rain = 0
KOES 141720Z 05014G20KT 30/16 A302 RMK A01 T03020161  RH  044%=      5-min Rain = 0
KOES 141725Z 05014G19KT 30/16 A3019 RMK A01 T03030160  RH  044%=      5-min Rain = 0
KOES 141730Z 05013G18KT 31/16 A3019 RMK A01 T03050159  RH  043%=      5-min Rain = 0
KOES 141735Z 05013G19KT 31/16 A3019 RMK A01 T03080159  RH  043%=      5-min Rain = 0
KOES 141740Z 05012G17KT 31/16 A3018 RMK A01 T03140160  RH  041%=      5-min Rain = 0
KOES 141745Z 07012KT 31/16 A3018 RMK A01 T03120159  RH  042%=      5-min Rain = 0
KOES 141750Z 07015KT 31/16 A3018 RMK A01 T03130155  RH  040%=      5-min Rain = 0
KOES 141755Z 08014G19KT 31/15 A3018 RMK A01 T03140153  RH  039%=      5-min Rain = 0
KOES 141800Z 07012KT 31/15 A3018 RMK A01 T03140153  RH  040%=      5-min Rain = 0
KOES 141805Z 07014G19KT 32/16 A3017 RMK A01 T03180156  RH  039%=      5-min Rain = 0
KOES 141810Z 06013G18KT 32/15 A3017 RMK A01 T03170154  RH  039%=      5-min Rain = 0
KOES 141815Z 08013G20KT 32/15 A3017 RMK A01 T03220149  RH  037%=      5-min Rain = 0
KOES 141820Z 07014G22KT 32/15 A3016 RMK A01 T03220151  RH  037%=      5-min Rain = 0
KOES 141825Z 07012G17KT 32/15 A3016 RMK A01 T03190148  RH  037%=      5-min Rain = 0
KOES 141830Z 07015G20KT 32/14 A3016 RMK A01 T03230142  RH  035%=      5-min Rain = 0
KOES 141835Z 06013G19KT 32/15 A3016 RMK A01 T03230149  RH  037%=      5-min Rain = 0
KOES 141840Z 07013KT 33/15 A3016 RMK A01 T03260145  RH  035%=      5-min Rain = 0
KOES 141845Z 06013G18KT 33/14 A3016 RMK A01 T03270135  RH  032%=      5-min Rain = 0
KOES 141850Z 09011G16KT 33/14 A3015 RMK A01 T03280142  RH  034%=      5-min Rain = 0
KOES 141855Z 07012G18KT 33/14 A3015 RMK A01 T03320140  RH  033%=      5-min Rain = 0
KOES 141900Z 06013KT 34/14 A3015 RMK A01 T03350137  RH  032%=      5-min Rain = 0
KOES 141905Z 06012KT 34/13 A3015 RMK A01 T03350132  RH  031%=      5-min Rain = 0
KOES 141910Z 07011G16KT 34/13 A3015 RMK A01 T03360131  RH  030%=      5-min Rain = 0
KOES 141915Z 08012G17KT 34/13 A3015 RMK A01 T03380133  RH  030%=      5-min Rain = 0
KOES 141920Z 07011G19KT 34/13 A3015 RMK A01 T03370128  RH  029%=      5-min Rain = 0
KOES 141925Z 07012G18KT 34/12 A3015 RMK A01 T03410119  RH  027%=      5-min Rain = 0
KOES 141930Z 06014G20KT 34/12 A3014 RMK A01 T03420124  RH  028%=      5-min Rain = 0
KOES 141935Z 06014KT 34/12 A3014 RMK A01 T03420122  RH  027%=      5-min Rain = 0
KOES 141940Z 06010G16KT 34/12 A3014 RMK A01 T03420123  RH  028%=      5-min Rain = 0
KOES 141945Z 06012G17KT 35/13 A3014 RMK A01 T03460125  RH  027%=      5-min Rain = 0
KOES 141950Z 08013G18KT 34/13 A3013 RMK A01 T03420127  RH  028%=      5-min Rain = 0
KOES 141955Z 07013G18KT 35/12 A3013 RMK A01 T03460124  RH  027%=      5-min Rain = 0
KOES 142000Z 07013G18KT 35/11 A3013 RMK A01 T03470114  RH  025%=      5-min Rain = 0
KOES 142005Z 07014G19KT 35/11 A3013 RMK A01 T03470113  RH  025%=      5-min Rain = 0
KOES 142010Z 06011G17KT 35/12 A3013 RMK A01 T03480120  RH  026%=      5-min Rain = 0
KOES 142015Z 06011G18KT 35/12 A3012 RMK A01 T03510122  RH  026%=      5-min Rain = 0
KOES 142020Z 06013G18KT 36/12 A3012 RMK A01 T03550115  RH  024%=      5-min Rain = 0
KOES 142025Z 08013KT 35/12 A3011 RMK A01 T03500115  RH  025%=      5-min Rain = 0
KOES 142030Z 05012G17KT 35/12 A3011 RMK A01 T03530118  RH  025%=      5-min Rain = 0
KOES 142035Z 04012G17KT 35/11 A3011 RMK A01 T03530113  RH  024%=      5-min Rain = 0
KOES 142040Z 07012G19KT 36/12 A301 RMK A01 T03550117  RH  025%=      5-min Rain = 0
KOES 142045Z 07010G18KT 35/11 A301 RMK A01 T03540109  RH  023%=      5-min Rain = 0
KOES 142050Z 07012KT 36/11 A301 RMK A01 T03550113  RH  024%=      5-min Rain = 0
KOES 142055Z 08011KT 35/11 A301 RMK A01 T03540111  RH  024%=      5-min Rain = 0
KOES 142100Z 06014KT 35/11 A301 RMK A01 T03520111  RH  024%=      5-min Rain = 0
KOES 142105Z 05009G14KT 35/11 A3009 RMK A01 T03510111  RH  024%=      5-min Rain = 0
KOES 142110Z 05011G16KT 35/11 A3009 RMK A01 T03540110  RH  024%=      5-min Rain = 0
KOES 142115Z 07010G18KT 35/11 A3009 RMK A01 T03530107  RH  023%=      5-min Rain = 0
KOES 142120Z 07014G19KT 36/10 A3009 RMK A01 T03570102  RH  022%=      5-min Rain = 0
KOES 142125Z 07012KT 36/10 A3009 RMK A01 T03550100  RH  022%=      5-min Rain = 0
KOES 142130Z 04013G19KT 35/11 A3009 RMK A01 T03540106  RH  023%=      5-min Rain = 0
KOES 142135Z 05011KT 35/10 A3009 RMK A01 T03540103  RH  022%=      5-min Rain = 0
KOES 142140Z 07010G16KT 35/10 A3009 RMK A01 T03540101  RH  022%=      5-min Rain = 0
KOES 142145Z 06013KT 36/10 A3008 RMK A01 T03590104  RH  022%=      5-min Rain = 0
KOES 142150Z 06010G15KT 35/10 A3008 RMK A01 T03540103  RH  022%=      5-min Rain = 0
KOES 142155Z 07009KT 36/10 A3008 RMK A01 T03560104  RH  023%=      5-min Rain = 0
KOES 142200Z 07008KT 36/11 A3007 RMK A01 T03550105  RH  023%=      5-min Rain = 0
KOES 142205Z 04011G17KT 36/11 A3007 RMK A01 T03580110  RH  023%=      5-min Rain = 0
KOES 142210Z 05011G17KT 36/11 A3007 RMK A01 T03550110  RH  023%=      5-min Rain = 0
KOES 142215Z 05006G11KT 35/11 A3007 RMK A01 T03540108  RH  023%=      5-min Rain = 0
KOES 142220Z 09009KT 35/10 A3007 RMK A01 T03540100  RH  022%=      5-min Rain = 0
KOES 142225Z 09005KT 35/10 A3007 RMK A01 T03520103  RH  023%=      5-min Rain = 0
KOES 142230Z 05009KT 36/11 A3007 RMK A01 T03560111  RH  024%=      5-min Rain = 0
KOES 142235Z 05008KT 36/11 A3007 RMK A01 T03550108  RH  023%=      5-min Rain = 0
KOES 142240Z 05007KT 36/11 A3007 RMK A01 T03560111  RH  023%=      5-min Rain = 0
KOES 142245Z 07007KT 35/11 A3007 RMK A01 T03540105  RH  023%=      5-min Rain = 0
KOES 142250Z 07006KT 36/11 A3007 RMK A01 T03550107  RH  023%=      5-min Rain = 0
KOES 142255Z 08010G15KT 36/11 A3007 RMK A01 T03550109  RH  023%=      5-min Rain = 0
KOES 142300Z 09010KT 35/11 A3007 RMK A01 T03540112  RH  024%=      5-min Rain = 0
KOES 142305Z 08009KT 35/11 A3007 RMK A01 T03520112  RH  024%=      5-min Rain = 0
KOES 142310Z 08011KT 35/11 A3007 RMK A01 T03530112  RH  024%=      5-min Rain = 0
KOES 142315Z 07008G14KT 35/11 A3007 RMK A01 T03520114  RH  025%=      5-min Rain = 0
KOES 142320Z 08007KT 35/12 A3007 RMK A01 T03520115  RH  025%=      5-min Rain = 0
KOES 142325Z 08008KT 35/11 A3006 RMK A01 T03520113  RH  024%=      5-min Rain = 0
KOES 142330Z 08011KT 35/12 A3006 RMK A01 T03510119  RH  025%=      5-min Rain = 0
KOES 142335Z 07009KT 35/12 A3006 RMK A01 T03500118  RH  026%=      5-min Rain = 0
KOES 142340Z 08011KT 35/12 A3006 RMK A01 T03490121  RH  026%=      5-min Rain = 0
KOES 142345Z 07010KT 35/13 A3006 RMK A01 T03470127  RH  028%=      5-min Rain = 0
KOES 142350Z 09009KT 35/12 A3006 RMK A01 T03480124  RH  027%=      5-min Rain = 0
KOES 142355Z 09009KT 34/13 A3006 RMK A01 T03430125  RH  028%=      5-min Rain = 0
KOES 150000Z 09010KT 35/12 A3006 RMK A01 T03460124  RH  027%=      5-min Rain = 0
KOES 150005Z 08009KT 34/12 A3006 RMK A01 T03440121  RH  027%=      5-min Rain = 0
KOES 150010Z 08009KT 35/12 A3006 RMK A01 T03450120  RH  027%=      5-min Rain = 0
KOES 150015Z 09009KT 34/12 A3006 RMK A01 T03430122  RH  027%=      5-min Rain = 0
KOES 150020Z 08009KT 34/12 A3006 RMK A01 T03410123  RH  028%=      5-min Rain = 0
KOES 150025Z 08009KT 34/13 A3006 RMK A01 T03380129  RH  029%=      5-min Rain = 0
KOES 150030Z 08010KT 34/13 A3006 RMK A01 T03380125  RH  029%=      5-min Rain = 0
KOES 150035Z 09009KT 34/13 A3007 RMK A01 T03370126  RH  029%=      5-min Rain = 0
KOES 150040Z 09008KT 34/13 A3007 RMK A01 T03360127  RH  029%=      5-min Rain = 0
KOES 150045Z 08009KT 33/13 A3007 RMK A01 T03330130  RH  030%=      5-min Rain = 0
KOES 150050Z 08007KT 33/13 A3007 RMK A01 T03330126  RH  030%=      5-min Rain = 0
KOES 150055Z 08007KT 33/13 A3007 RMK A01 T03310129  RH  031%=      5-min Rain = 0
KOES 150100Z 08007KT 33/13 A3007 RMK A01 T03260133  RH  032%=      5-min Rain = 0
KOES 150105Z 08007KT 32/13 A3007 RMK A01 T03230133  RH  033%=      5-min Rain = 0
KOES 150110Z 08007KT 32/13 A3008 RMK A01 T03200133  RH  033%=      5-min Rain = 0
KOES 150115Z 07007KT 32/13 A3008 RMK A01 T03160133  RH  034%=      5-min Rain = 0
KOES 150120Z 08006KT 32/13 A3008 RMK A01 T03150132  RH  034%=      5-min Rain = 0
KOES 150125Z 08006KT 31/13 A3008 RMK A01 T03120133  RH  035%=      5-min Rain = 0
KOES 150130Z 07006KT 31/13 A3008 RMK A01 T03070134  RH  036%=      5-min Rain = 0
KOES 150135Z 07005KT 30/13 A3009 RMK A01 T03040134  RH  037%=      5-min Rain = 0
KOES 150140Z 08005KT 30/13 A3009 RMK A01 T03030134  RH  037%=      5-min Rain = 0
KOES 150145Z 09007KT 30/13 A3009 RMK A01 T03030133  RH  037%=      5-min Rain = 0
KOES 150150Z 09007KT 31/13 A3009 RMK A01 T03060133  RH  036%=      5-min Rain = 0
KOES 150155Z 09007KT 31/13 A3009 RMK A01 T03070134  RH  036%=      5-min Rain = 0
KOES 150200Z 09007KT 31/14 A301 RMK A01 T03070137  RH  037%=      5-min Rain = 0
KOES 150205Z 10006KT 31/14 A301 RMK A01 T03060139  RH  038%=      5-min Rain = 0
KOES 150210Z 11007KT 31/14 A301 RMK A01 T03050141  RH  038%=      5-min Rain = 0
KOES 150215Z 11007KT 30/14 A3011 RMK A01 T03020144  RH  040%=      5-min Rain = 0
KOES 150220Z 11006KT 30/15 A3011 RMK A01 T03010147  RH  041%=      5-min Rain = 0
KOES 150225Z 11007KT 30/15 A3011 RMK A01 T03000148  RH  042%=      5-min Rain = 0
KOES 150230Z 11006KT 30/15 A3011 RMK A01 T02990149  RH  042%=      5-min Rain = 0
KOES 150235Z 11007KT 30/15 A3011 RMK A01 T02980150  RH  042%=      5-min Rain = 0
KOES 150240Z 11006KT 30/15 A3012 RMK A01 T02970150  RH  043%=      5-min Rain = 0
KOES 150245Z 11006KT 30/15 A3012 RMK A01 T02960151  RH  043%=      5-min Rain = 0
KOES 150250Z 12006KT 30/15 A3012 RMK A01 T02960150  RH  043%=      5-min Rain = 0
KOES 150255Z 12006KT 30/15 A3013 RMK A01 T02950150  RH  043%=      5-min Rain = 0
KOES 150300Z 12006KT 29/15 A3013 RMK A01 T02930150  RH  044%=      5-min Rain = 0
KOES 150305Z 12006KT 29/15 A3013 RMK A01 T02910150  RH  044%=      5-min Rain = 0
KOES 150310Z 12005KT 29/15 A3013 RMK A01 T02900150  RH  044%=      5-min Rain = 0
KOES 150315Z 12005KT 29/15 A3013 RMK A01 T02900150  RH  044%=      5-min Rain = 0
KOES 150320Z 12006KT 29/15 A3013 RMK A01 T02890149  RH  044%=      5-min Rain = 0
KOES 150325Z 12006KT 29/15 A3013 RMK A01 T02880149  RH  045%=      5-min Rain = 0
KOES 150330Z 11006KT 29/15 A3013 RMK A01 T02850148  RH  045%=      5-min Rain = 0
KOES 150335Z 11006KT 28/15 A3014 RMK A01 T02840148  RH  045%=      5-min Rain = 0
KOES 150340Z 11006KT 28/15 A3014 RMK A01 T02840148  RH  046%=      5-min Rain = 0
KOES 150345Z 11006KT 28/15 A3014 RMK A01 T02810148  RH  046%=      5-min Rain = 0
KOES 150350Z 11007KT 28/15 A3014 RMK A01 T02800148  RH  046%=      5-min Rain = 0
KOES 150355Z 11007KT 28/15 A3014 RMK A01 T02800147  RH  046%=      5-min Rain = 0
KOES 150400Z 11006KT 28/15 A3014 RMK A01 T02790148  RH  047%=      5-min Rain = 0
KOES 150405Z 11007KT 28/15 A3014 RMK A01 T02790149  RH  047%=      5-min Rain = 0
KOES 150410Z 10007KT 28/15 A3014 RMK A01 T02810149  RH  047%=      5-min Rain = 0
KOES 150415Z 10008KT 28/15 A3014 RMK A01 T02820150  RH  046%=      5-min Rain = 0
KOES 150420Z 09007KT 28/15 A3014 RMK A01 T02810150  RH  047%=      5-min Rain = 0
KOES 150425Z 08006KT 27/15 A3014 RMK A01 T02720149  RH  049%=      5-min Rain = 0
KOES 150430Z 08005KT 27/15 A3014 RMK A01 T02660149  RH  051%=      5-min Rain = 0
KOES 150435Z 09006KT 26/15 A3014 RMK A01 T02640150  RH  052%=      5-min Rain = 0
KOES 150440Z 10007KT 27/15 A3014 RMK A01 T02710151  RH  050%=      5-min Rain = 0
KOES 150445Z 10006KT 27/15 A3014 RMK A01 T02730151  RH  050%=      5-min Rain = 0
KOES 150450Z 10006KT 27/15 A3014 RMK A01 T02720152  RH  050%=      5-min Rain = 0
KOES 150455Z 10007KT 27/15 A3014 RMK A01 T02720153  RH  050%=      5-min Rain = 0

Page generated in 0.0088 seconds.